Time;durP1;ratioP1;P1;durP2;ratioP2;P2;SDS_P1;SDS_P2;PMS_P1;PMS_P2;Temp;Humidity;BMP_temperature;BMP_pressure;BME280_temperature;BME280_humidity;BME280_pressure;Samples;Min_cycle;Max_cycle;Signal;HPM_P1;HPM_P2
2023/06/08 00:02:15;;;;;;;18.42;9.68;;;16.20;90.20;;;;;;4989175;28;87523;-74
2023/06/08 00:04:41;;;;;;;20.75;9.93;;;16.20;90.10;;;;;;4987530;28;87151;-74
2023/06/08 00:07:08;;;;;;;15.23;9.35;;;16.20;90.20;;;;;;4990076;28;87550;-73
2023/06/08 00:09:38;;;;;;;15.10;9.00;;;16.20;90.20;;;;;;4988199;28;88350;-73
2023/06/08 00:12:05;;;;;;;16.17;8.77;;;16.20;90.00;;;;;;4988798;28;88946;-74
2023/06/08 00:14:31;;;;;;;18.05;9.82;;;16.20;90.30;;;;;;4988461;28;87643;-74
2023/06/08 00:16:57;;;;;;;19.98;8.85;;;16.20;89.60;;;;;;4987582;28;88173;-74
2023/06/08 00:19:23;;;;;;;19.13;8.50;;;16.20;89.20;;;;;;4989276;28;88297;-74
2023/06/08 00:21:49;;;;;;;15.15;8.18;;;16.20;89.20;;;;;;4987554;28;87938;-74
2023/06/08 00:24:21;;;;;;;18.80;9.25;;;16.10;88.90;;;;;;4987754;28;87745;-74
2023/06/08 00:26:46;;;;;;;20.15;8.77;;;16.10;89.00;;;;;;4988189;28;89391;-74
2023/06/08 00:29:12;;;;;;;16.98;8.38;;;16.10;88.70;;;;;;4987932;28;87787;-73
2023/06/08 00:31:38;;;;;;;18.13;8.13;;;16.10;89.80;;;;;;4988476;28;87786;-74
2023/06/08 00:34:03;;;;;;;15.35;9.05;;;16.00;88.80;;;;;;4988968;28;87644;-74
2023/06/08 00:36:29;;;;;;;15.65;7.55;;;16.00;88.20;;;;;;4986908;28;91165;-73
2023/06/08 00:38:55;;;;;;;15.00;7.30;;;16.00;88.20;;;;;;4987810;28;88814;-73
2023/06/08 00:41:20;;;;;;;16.90;7.75;;;16.00;87.60;;;;;;4988244;28;87520;-74
2023/06/08 00:43:46;;;;;;;18.48;7.82;;;16.00;88.10;;;;;;4988338;28;87363;-74
2023/06/08 00:46:14;;;;;;;14.32;7.32;;;16.00;87.90;;;;;;4988289;28;88210;-74
2023/06/08 00:48:40;;;;;;;16.33;8.02;;;16.00;87.70;;;;;;4987250;28;88298;-74
2023/06/08 00:51:06;;;;;;;16.52;7.78;;;15.90;87.70;;;;;;4987322;28;87913;-73
2023/06/08 00:53:35;;;;;;;16.60;7.97;;;15.90;87.80;;;;;;4986728;28;86871;-74
2023/06/08 00:56:01;;;;;;;18.42;8.07;;;15.90;87.80;;;;;;4987421;28;88376;-74
2023/06/08 00:58:28;;;;;;;22.00;8.90;;;15.90;88.60;;;;;;4989346;28;87580;-74
2023/06/08 01:01:01;;;;;;;16.50;8.27;;;15.80;88.00;;;;;;4987481;28;88697;-73
2023/06/08 01:03:35;;;;;;;18.38;8.38;;;15.80;87.90;;;;;;4988631;28;88051;-74
2023/06/08 01:06:03;;;;;;;16.27;7.53;;;15.80;87.90;;;;;;4987709;28;89102;-74
2023/06/08 01:08:52;;;;;;;17.52;7.80;;;15.70;87.50;;;;;;4987239;28;88622;-73
2023/06/08 01:11:45;;;;;;;18.75;7.75;;;15.80;87.90;;;;;;4987842;28;88092;-74
2023/06/08 01:14:35;;;;;;;16.55;7.65;;;15.80;88.00;;;;;;4974636;28;87473;-73
2023/06/08 01:17:03;;;;;;;16.05;7.75;;;15.70;88.00;;;;;;4986500;28;87856;-74
2023/06/08 01:19:54;;;;;;;19.50;8.02;;;15.70;88.00;;;;;;4988006;28;88354;-74
2023/06/08 01:22:27;;;;;;;14.27;7.30;;;15.70;87.70;;;;;;4988755;28;88104;-74
2023/06/08 01:24:56;;;;;;;18.93;8.07;;;15.70;87.40;;;;;;4987646;28;94344;-74
2023/06/08 01:27:25;;;;;;;17.80;7.97;;;15.60;88.20;;;;;;4987142;28;89629;-74
2023/06/08 01:29:54;;;;;;;16.50;8.20;;;15.60;87.70;;;;;;4986957;28;89010;-74
2023/06/08 01:32:20;;;;;;;16.67;7.75;;;15.60;88.40;;;;;;4987954;28;87471;-74
2023/06/08 01:34:46;;;;;;;15.43;7.90;;;15.60;88.50;;;;;;4986921;28;87846;-74
2023/06/08 01:37:36;;;;;;;17.77;7.28;;;15.50;88.60;;;;;;4988778;28;87652;-73
2023/06/08 01:40:35;;;;;;;20.05;8.23;;;15.50;88.20;;;;;;4987193;28;92334;-74
2023/06/08 01:43:05;;;;;;;18.02;8.13;;;15.50;88.10;;;;;;4939093;28;87735;-74
2023/06/08 01:45:36;;;;;;;14.68;7.32;;;15.50;88.40;;;;;;4986162;28;88145;-73
2023/06/08 01:48:06;;;;;;;17.90;8.27;;;15.40;88.30;;;;;;4986861;28;88419;-74
2023/06/08 01:50:33;;;;;;;15.45;8.45;;;15.40;88.30;;;;;;4986471;28;87778;-74
2023/06/08 01:53:00;;;;;;;17.10;8.32;;;15.30;88.80;;;;;;4986704;28;88733;-74
2023/06/08 01:55:27;;;;;;;21.83;8.43;;;15.30;89.00;;;;;;4988157;28;87899;-74
2023/06/08 01:57:53;;;;;;;19.15;8.38;;;15.30;88.70;;;;;;4986786;28;92527;-74
2023/06/08 02:00:20;;;;;;;16.15;7.90;;;15.20;89.10;;;;;;4986147;28;88217;-74
2023/06/08 02:02:46;;;;;;;16.92;8.50;;;15.20;89.70;;;;;;4986820;28;88040;-74
2023/06/08 02:05:14;;;;;;;21.08;8.88;;;15.20;89.60;;;;;;4968027;28;87996;-74
2023/06/08 02:07:41;;;;;;;19.75;8.18;;;15.20;89.70;;;;;;4987010;28;89431;-74
2023/06/08 02:10:11;;;;;;;16.13;8.05;;;15.20;89.70;;;;;;4970457;28;88809;-74
2023/06/08 02:12:36;;;;;;;15.07;8.60;;;15.10;90.10;;;;;;4969368;28;87727;-73
2023/06/08 02:15:03;;;;;;;18.70;8.68;;;15.10;90.10;;;;;;4986354;28;88025;-74
2023/06/08 02:17:36;;;;;;;15.02;8.35;;;15.10;89.80;;;;;;4986163;28;89732;-73
2023/06/08 02:20:06;;;;;;;17.27;9.10;;;15.10;90.20;;;;;;4986304;28;88934;-74
2023/06/08 02:22:33;;;;;;;17.98;8.68;;;15.00;90.10;;;;;;4987524;28;87985;-74
2023/06/08 02:24:59;;;;;;;15.20;7.85;;;15.00;90.20;;;;;;4988176;28;87498;-74
2023/06/08 02:27:25;;;;;;;18.55;9.43;;;15.00;90.20;;;;;;4987552;28;87703;-74
2023/06/08 02:29:51;;;;;;;18.52;9.52;;;15.00;90.30;;;;;;4990260;28;87753;-74
2023/06/08 02:32:16;;;;;;;17.90;8.27;;;15.00;90.20;;;;;;4990271;28;87598;-74
2023/06/08 02:34:55;;;;;;;15.93;8.90;;;14.90;90.00;;;;;;4990982;28;87545;-74
2023/06/08 02:37:24;;;;;;;15.18;8.50;;;14.90;90.30;;;;;;4990793;28;88105;-73
2023/06/08 02:39:50;;;;;;;18.00;8.90;;;14.90;90.20;;;;;;4989507;28;88869;-74
2023/06/08 02:42:18;;;;;;;19.35;9.20;;;14.80;90.60;;;;;;4989699;28;88331;-74
2023/06/08 02:44:45;;;;;;;22.45;8.63;;;14.80;90.60;;;;;;4990370;28;87417;-74
2023/06/08 02:47:10;;;;;;;16.80;9.57;;;14.80;90.60;;;;;;4990371;28;87834;-73
2023/06/08 02:49:36;;;;;;;19.30;9.07;;;14.80;90.60;;;;;;4990710;28;88509;-74
2023/06/08 02:52:02;;;;;;;31.92;10.57;;;14.70;90.60;;;;;;4991381;28;87700;-74
2023/06/08 02:54:27;;;;;;;26.60;10.98;;;14.70;90.80;;;;;;4989896;28;87623;-73
2023/06/08 02:56:53;;;;;;;21.35;10.07;;;14.70;90.90;;;;;;4989547;28;89218;-74
2023/06/08 02:59:19;;;;;;;21.83;9.52;;;14.70;91.00;;;;;;4990275;28;89595;-73
2023/06/08 03:01:53;;;;;;;21.60;8.63;;;14.70;90.80;;;;;;4990625;28;87845;-74
2023/06/08 03:04:23;;;;;;;23.80;10.10;;;14.60;91.00;;;;;;4990852;28;87917;-73
2023/06/08 03:06:53;;;;;;;19.10;8.88;;;14.60;91.00;;;;;;4969571;28;90572;-73
2023/06/08 03:09:23;;;;;;;19.45;10.15;;;14.60;90.80;;;;;;4989705;28;89254;-74
2023/06/08 03:11:49;;;;;;;23.60;9.45;;;14.60;91.10;;;;;;4989453;28;87661;-74
2023/06/08 03:14:16;;;;;;;19.60;9.63;;;14.60;91.20;;;;;;4989625;28;87826;-74
2023/06/08 03:16:44;;;;;;;19.17;9.93;;;14.50;91.30;;;;;;4988604;28;89363;-73
2023/06/08 03:19:10;;;;;;;23.70;10.35;;;14.50;91.30;;;;;;4989899;28;87648;-74
2023/06/08 03:21:36;;;;;;;16.83;8.48;;;14.50;91.30;;;;;;4989193;28;87661;-74
2023/06/08 03:24:03;;;;;;;15.90;9.13;;;14.50;91.40;;;;;;4989785;28;87355;-74
2023/06/08 03:26:28;;;;;;;19.67;10.27;;;14.40;91.30;;;;;;4989386;28;88487;-73
2023/06/08 03:28:54;;;;;;;24.38;10.00;;;14.40;91.40;;;;;;4989430;28;88341;-74
2023/06/08 03:31:20;;;;;;;24.45;10.10;;;14.40;91.50;;;;;;4989294;28;88681;-73
2023/06/08 03:33:46;;;;;;;20.00;9.68;;;14.40;91.50;;;;;;4989225;28;87529;-74
2023/06/08 03:36:12;;;;;;;20.02;9.93;;;14.40;91.60;;;;;;4989034;28;88698;-74
2023/06/08 03:38:38;;;;;;;22.35;10.10;;;14.40;91.60;;;;;;4988951;28;88137;-74
2023/06/08 03:41:03;;;;;;;23.77;9.93;;;14.30;91.50;;;;;;4988314;28;87924;-74
2023/06/08 03:43:29;;;;;;;23.55;10.80;;;14.30;91.70;;;;;;4988272;28;88500;-74
2023/06/08 03:45:55;;;;;;;23.50;9.80;;;14.30;91.60;;;;;;4988933;28;89108;-74
2023/06/08 03:48:20;;;;;;;26.77;10.40;;;14.30;91.60;;;;;;4988777;28;86944;-74
2023/06/08 03:50:46;;;;;;;20.48;11.02;;;14.30;91.70;;;;;;4988958;28;87810;-73
2023/06/08 03:53:12;;;;;;;19.35;11.00;;;14.30;91.80;;;;;;4988600;28;87933;-74
2023/06/08 03:55:38;;;;;;;22.55;11.30;;;14.30;91.80;;;;;;4985272;28;90437;-74
2023/06/08 03:58:04;;;;;;;19.05;10.75;;;14.30;91.80;;;;;;4989397;28;89202;-74
2023/06/08 04:00:29;;;;;;;25.30;11.10;;;14.30;91.90;;;;;;4988572;28;87930;-74
2023/06/08 04:02:56;;;;;;;22.55;10.63;;;14.30;91.80;;;;;;4988694;28;87516;-73
2023/06/08 04:05:21;;;;;;;26.90;11.32;;;14.30;91.90;;;;;;4988205;28;88803;-74
2023/06/08 04:07:48;;;;;;;21.05;11.13;;;14.30;91.90;;;;;;4988344;28;88704;-74
2023/06/08 04:10:14;;;;;;;24.42;11.52;;;14.30;91.90;;;;;;4988181;28;87973;-73
2023/06/08 04:12:40;;;;;;;23.00;11.68;;;14.30;92.20;;;;;;4987788;28;86997;-74
2023/06/08 04:15:07;;;;;;;22.08;11.65;;;14.30;91.90;;;;;;4987369;28;87657;-73
2023/06/08 04:17:33;;;;;;;22.05;11.50;;;14.40;92.00;;;;;;4985522;28;90194;-74
2023/06/08 04:19:58;;;;;;;21.38;11.07;;;14.30;91.90;;;;;;4986583;28;89334;-74
2023/06/08 04:22:24;;;;;;;19.88;10.23;;;14.40;91.90;;;;;;4988017;28;87625;-73
2023/06/08 04:24:50;;;;;;;22.60;10.57;;;14.40;91.80;;;;;;4987486;28;88036;-74
2023/06/08 04:27:16;;;;;;;28.88;11.38;;;14.40;91.80;;;;;;4988000;28;87675;-74
2023/06/08 04:29:41;;;;;;;23.60;11.32;;;14.40;92.00;;;;;;4987818;28;87714;-73
2023/06/08 04:32:07;;;;;;;27.17;12.07;;;14.40;91.90;;;;;;4987493;28;87549;-73
2023/06/08 04:34:33;;;;;;;20.67;11.38;;;14.40;91.70;;;;;;4987596;28;89396;-74
2023/06/08 04:36:59;;;;;;;23.83;11.55;;;14.50;91.70;;;;;;4988808;28;88489;-74
2023/06/08 04:39:24;;;;;;;27.10;11.95;;;14.50;91.70;;;;;;4987469;28;90218;-74
2023/06/08 04:41:53;;;;;;;26.42;11.88;;;14.50;91.70;;;;;;4987085;28;87487;-73
2023/06/08 04:44:20;;;;;;;25.73;11.75;;;14.50;91.80;;;;;;4987798;28;89011;-74
2023/06/08 04:46:46;;;;;;;24.90;11.77;;;14.60;91.70;;;;;;4968741;28;89541;-74
2023/06/08 04:49:14;;;;;;;24.85;11.65;;;14.60;91.50;;;;;;4988278;28;87469;-74
2023/06/08 04:51:46;;;;;;;23.42;12.43;;;14.70;91.50;;;;;;4987213;28;87642;-74
2023/06/08 04:54:13;;;;;;;22.23;12.77;;;14.70;91.40;;;;;;4986943;28;89842;-73
2023/06/08 04:56:42;;;;;;;22.38;11.90;;;14.70;91.30;;;;;;4987602;28;88802;-74
2023/06/08 04:59:10;;;;;;;20.08;11.70;;;14.80;91.40;;;;;;4987640;28;87791;-74
2023/06/08 05:01:37;;;;;;;24.95;12.65;;;14.80;91.40;;;;;;4987728;28;86799;-74
2023/06/08 05:04:07;;;;;;;23.75;11.63;;;14.90;91.20;;;;;;4988181;28;88085;-74
2023/06/08 05:06:33;;;;;;;24.10;12.10;;;14.90;91.20;;;;;;4986304;28;88003;-74
2023/06/08 05:08:59;;;;;;;18.95;12.15;;;15.00;91.10;;;;;;4987378;28;88422;-74
2023/06/08 05:11:24;;;;;;;27.30;11.98;;;15.00;91.10;;;;;;4987480;28;87847;-74
2023/06/08 05:13:50;;;;;;;25.33;13.02;;;15.10;90.90;;;;;;4987099;28;87920;-74
2023/06/08 05:16:15;;;;;;;27.50;13.00;;;15.10;90.90;;;;;;4986905;28;89212;-73
2023/06/08 05:18:41;;;;;;;29.75;13.20;;;15.10;90.80;;;;;;4987371;28;87397;-74
2023/06/08 05:21:07;;;;;;;23.08;13.10;;;15.20;90.60;;;;;;4987048;28;87823;-73
2023/06/08 05:23:32;;;;;;;23.63;11.65;;;15.20;90.80;;;;;;4986688;28;88759;-74
2023/06/08 05:25:58;;;;;;;29.20;13.40;;;15.30;90.80;;;;;;4987174;28;87353;-74
2023/06/08 05:28:23;;;;;;;25.50;12.35;;;15.30;90.60;;;;;;4987668;28;87665;-74
2023/06/08 05:30:49;;;;;;;20.90;12.65;;;15.30;90.20;;;;;;4985859;28;87962;-74
2023/06/08 05:33:15;;;;;;;25.80;12.32;;;15.40;90.40;;;;;;4986621;28;89119;-74
2023/06/08 05:35:40;;;;;;;25.55;12.98;;;15.50;90.00;;;;;;4986447;28;89035;-74
2023/06/08 05:38:06;;;;;;;24.58;13.48;;;15.50;90.20;;;;;;4986700;28;88114;-73
2023/06/08 05:40:32;;;;;;;25.27;12.93;;;15.60;89.90;;;;;;4986715;28;87646;-78
2023/06/08 05:42:57;;;;;;;24.15;12.82;;;15.70;89.60;;;;;;4996772;28;87501;-78
2023/06/08 05:45:23;;;;;;;30.48;12.93;;;15.70;90.00;;;;;;4996292;28;88860;-78
2023/06/08 05:47:48;;;;;;;25.95;14.32;;;15.80;89.40;;;;;;4996103;28;87620;-79
2023/06/08 05:50:14;;;;;;;20.90;11.82;;;15.90;89.50;;;;;;4995882;28;86858;-78
2023/06/08 05:52:40;;;;;;;26.90;14.10;;;16.00;89.30;;;;;;4994892;28;88526;-77
2023/06/08 05:55:06;;;;;;;29.17;13.48;;;16.10;89.40;;;;;;4994354;28;89024;-77
2023/06/08 05:57:31;;;;;;;24.15;13.55;;;16.10;88.40;;;;;;4993749;28;88511;-77
2023/06/08 05:59:57;;;;;;;25.40;13.50;;;16.20;88.20;;;;;;4976074;28;90933;-77
2023/06/08 06:02:23;;;;;;;22.23;12.55;;;16.30;87.90;;;;;;4996726;28;88607;-77
2023/06/08 06:04:48;;;;;;;21.75;12.77;;;16.30;87.60;;;;;;4998083;28;87951;-79
2023/06/08 06:07:14;;;;;;;27.88;13.27;;;16.40;88.20;;;;;;4999754;28;87442;-79
2023/06/08 06:09:39;;;;;;;23.77;12.65;;;16.50;87.80;;;;;;4978925;28;90373;-81
2023/06/08 06:12:07;;;;;;;22.85;13.05;;;16.60;86.20;;;;;;4997846;28;89005;-82
2023/06/08 06:14:38;;;;;;;23.35;12.75;;;16.70;86.00;;;;;;4998465;28;89016;-81
2023/06/08 06:17:05;;;;;;;25.38;12.45;;;16.80;86.00;;;;;;4997622;28;87574;-81
2023/06/08 06:19:36;;;;;;;21.50;12.75;;;16.90;85.50;;;;;;4996686;28;90706;-80
2023/06/08 06:22:02;;;;;;;25.27;12.60;;;17.00;85.10;;;;;;4998654;28;90012;-80
2023/06/08 06:24:28;;;;;;;25.17;13.48;;;17.10;85.30;;;;;;4978664;28;92515;-81
2023/06/08 06:29:20;;;;;;;21.58;12.80;;;17.30;84.20;;;;;;4976929;28;87727;-81
2023/06/08 06:31:45;;;;;;;24.45;13.80;;;17.40;84.30;;;;;;4996930;28;87598;-82
2023/06/08 06:34:11;;;;;;;25.35;13.73;;;17.50;83.60;;;;;;4998299;28;87793;-83
2023/06/08 06:36:36;;;;;;;23.27;13.35;;;17.60;83.10;;;;;;4996694;28;87677;-80
2023/06/08 06:39:02;;;;;;;20.73;12.65;;;17.70;82.80;;;;;;4996450;28;87513;-81
2023/06/08 06:41:28;;;;;;;22.20;12.63;;;17.80;82.80;;;;;;4996579;28;87696;-78
2023/06/08 06:43:53;;;;;;;23.95;13.77;;;17.90;83.00;;;;;;4996812;28;88012;-79
2023/06/08 06:46:19;;;;;;;22.63;13.02;;;18.00;81.90;;;;;;4979788;28;88599;-80
2023/06/08 06:48:45;;;;;;;23.25;13.10;;;18.20;81.80;;;;;;4978962;28;90427;-83
2023/06/08 06:51:11;;;;;;;25.23;12.60;;;18.20;80.60;;;;;;4996194;28;91301;-83
2023/06/08 06:53:37;;;;;;;26.65;13.90;;;18.40;80.80;;;;;;4995605;28;91449;-77
2023/06/08 06:56:02;;;;;;;23.10;13.88;;;18.50;80.80;;;;;;4997178;28;87551;-77
2023/06/08 06:58:29;;;;;;;22.45;13.57;;;18.60;79.60;;;;;;4979471;28;89896;-80
2023/06/08 07:00:55;;;;;;;22.38;13.23;;;18.70;79.90;;;;;;4997429;28;88530;-78
2023/06/08 07:03:21;;;;;;;21.30;13.20;;;18.80;79.40;;;;;;4995128;28;89101;-77
2023/06/08 07:05:47;;;;;;;21.05;12.98;;;19.00;79.20;;;;;;4996333;28;88112;-76
2023/06/08 07:08:13;;;;;;;23.85;12.82;;;19.10;79.30;;;;;;4987678;28;87834;-76
2023/06/08 07:10:38;;;;;;;24.65;13.27;;;19.20;78.30;;;;;;4995289;28;88710;-77
2023/06/08 07:13:04;;;;;;;19.75;11.45;;;19.40;78.00;;;;;;4995388;28;92763;-77
2023/06/08 07:15:30;;;;;;;24.67;13.52;;;19.50;78.10;;;;;;4996803;28;87957;-77
2023/06/08 07:17:55;;;;;;;21.45;12.18;;;19.60;76.90;;;;;;4975264;28;88832;-76
2023/06/08 07:20:21;;;;;;;24.05;14.57;;;19.70;76.60;;;;;;4992252;28;87713;-78
2023/06/08 07:22:46;;;;;;;23.42;14.23;;;19.90;77.00;;;;;;4994271;28;88254;-79
2023/06/08 07:25:14;;;;;;;22.48;14.38;;;20.00;75.30;;;;;;4994848;28;88027;-78
2023/06/08 07:27:39;;;;;;;23.90;13.77;;;20.00;74.50;;;;;;4993839;28;86986;-79
2023/06/08 07:30:06;;;;;;;19.52;12.43;;;20.20;75.10;;;;;;4993358;28;89431;-81
2023/06/08 07:32:32;;;;;;;22.58;12.32;;;20.40;75.80;;;;;;4977148;28;91650;-76
2023/06/08 07:34:58;;;;;;;22.42;13.73;;;20.50;74.20;;;;;;4996784;28;88563;-76
2023/06/08 07:37:24;;;;;;;19.30;11.77;;;20.60;72.70;;;;;;4997407;28;87793;-76
2023/06/08 07:39:49;;;;;;;21.77;11.52;;;20.70;73.20;;;;;;4996187;28;88776;-77
2023/06/08 07:42:15;;;;;;;17.85;11.98;;;21.00;74.30;;;;;;4995446;28;88428;-76
2023/06/08 07:44:41;;;;;;;19.45;12.70;;;21.10;73.50;;;;;;4994850;28;88088;-76
2023/06/08 07:47:06;;;;;;;20.02;12.48;;;21.30;72.90;;;;;;4996347;28;87926;-76
2023/06/08 07:49:32;;;;;;;21.65;12.32;;;21.40;70.40;;;;;;4994250;28;90729;-76
2023/06/08 07:51:58;;;;;;;18.95;11.82;;;21.50;71.60;;;;;;4979350;28;91683;-76
2023/06/08 07:54:24;;;;;;;20.17;12.15;;;21.60;72.30;;;;;;4996166;28;87833;-76
2023/06/08 07:56:50;;;;;;;21.65;12.20;;;21.90;69.30;;;;;;4995623;28;87821;-76
2023/06/08 07:59:16;;;;;;;26.55;12.43;;;22.00;69.70;;;;;;4995184;28;89399;-76
2023/06/08 08:01:42;;;;;;;21.67;12.43;;;22.10;70.50;;;;;;4994302;28;91658;-76
2023/06/08 08:04:08;;;;;;;23.08;12.73;;;22.30;70.00;;;;;;4979131;28;87618;-76
2023/06/08 08:06:34;;;;;;;18.13;12.02;;;22.50;67.60;;;;;;4995688;28;87893;-76
2023/06/08 08:09:00;;;;;;;18.33;10.25;;;22.60;69.10;;;;;;4977323;28;91883;-76
2023/06/08 08:11:26;;;;;;;25.60;12.68;;;22.90;69.60;;;;;;4995894;28;88011;-76
2023/06/08 08:13:52;;;;;;;20.25;12.30;;;23.10;67.00;;;;;;4995164;28;87804;-76
2023/06/08 08:16:18;;;;;;;24.13;11.60;;;23.20;65.00;;;;;;4995558;28;90483;-76
2023/06/08 08:18:44;;;;;;;21.70;13.00;;;23.40;66.50;;;;;;4993982;28;91892;-76
2023/06/08 08:21:10;;;;;;;21.48;11.85;;;23.40;65.00;;;;;;4995744;28;88336;-76
2023/06/08 08:23:37;;;;;;;21.25;12.02;;;23.40;64.20;;;;;;4995273;28;88323;-76
2023/06/08 08:26:02;;;;;;;18.42;11.50;;;23.40;66.30;;;;;;4976200;28;90950;-76
2023/06/08 08:28:28;;;;;;;21.45;11.77;;;23.60;64.30;;;;;;4995648;28;87781;-76
2023/06/08 08:30:54;;;;;;;21.77;10.63;;;23.80;63.80;;;;;;4996049;28;88470;-76
2023/06/08 08:33:20;;;;;;;23.10;12.52;;;24.00;66.10;;;;;;4993727;28;87425;-76
2023/06/08 08:35:46;;;;;;;19.92;11.90;;;24.20;62.60;;;;;;4993718;28;89662;-76
2023/06/08 08:38:11;;;;;;;23.50;14.05;;;24.20;64.30;;;;;;4977085;28;90173;-77
2023/06/08 08:40:37;;;;;;;21.15;12.18;;;24.20;62.80;;;;;;4995180;28;87859;-81
2023/06/08 08:43:11;;;;;;;22.92;13.20;;;24.30;62.40;;;;;;4993986;28;87948;-80
2023/06/08 08:45:39;;;;;;;19.05;11.40;;;24.30;63.40;;;;;;4977014;28;89603;-82
2023/06/08 08:48:07;;;;;;;18.90;11.93;;;24.50;62.70;;;;;;4993709;28;92624;-82
2023/06/08 08:50:38;;;;;;;16.75;9.57;;;24.60;60.10;;;;;;4995556;28;89512;-82
2023/06/08 08:53:06;;;;;;;25.83;11.80;;;24.60;62.20;;;;;;4995008;28;87682;-82
2023/06/08 08:55:33;;;;;;;23.25;11.93;;;25.00;59.60;;;;;;4995369;28;87776;-82
2023/06/08 08:58:00;;;;;;;19.05;10.90;;;25.10;60.00;;;;;;4994889;28;91315;-83
2023/06/08 09:00:27;;;;;;;17.27;9.88;;;25.30;61.80;;;;;;4977611;28;91444;-82
2023/06/08 09:02:53;;;;;;;15.80;10.52;;;25.50;60.80;;;;;;4978107;28;87801;-82
2023/06/08 09:05:19;;;;;;;19.13;11.85;;;25.60;60.80;;;;;;4977692;28;89184;-82
2023/06/08 09:07:45;;;;;;;16.02;9.35;;;25.80;60.60;;;;;;4993882;28;90475;-82
2023/06/08 09:10:16;;;;;;;21.42;10.65;;;26.00;61.20;;;;;;4994707;28;87434;-79
2023/06/08 09:12:43;;;;;;;17.27;9.18;;;26.40;60.30;;;;;;4992915;28;88235;-83
2023/06/08 09:15:16;;;;;;;18.92;10.38;;;26.60;58.60;;;;;;4970564;28;90332;-82
2023/06/08 09:17:43;;;;;;;;;;;26.70;57.70;;;;;;4995869;28;88699;-85
2023/06/08 09:20:09;;;;;;;17.52;9.02;;;26.70;59.00;;;;;;4979765;28;89540;-83
2023/06/08 09:22:36;;;;;;;13.30;8.40;;;26.80;58.70;;;;;;4978095;28;87858;-84
2023/06/08 09:25:03;;;;;;;14.80;9.30;;;27.20;56.90;;;;;;4995018;28;90735;-80
2023/06/08 09:27:31;;;;;;;13.20;8.93;;;27.40;57.40;;;;;;4995538;28;89295;-79
2023/06/08 09:29:57;;;;;;;14.70;7.28;;;27.70;58.40;;;;;;4973194;28;91582;-81
2023/06/08 09:32:31;;;;;;;15.02;8.10;;;27.90;57.40;;;;;;4994618;28;90257;-81
2023/06/08 09:35:01;;;;;;;14.35;9.55;;;28.20;56.80;;;;;;4995408;28;87133;-80
2023/06/08 09:37:32;;;;;;;17.60;8.50;;;28.30;54.90;;;;;;4995270;28;88605;-81
2023/06/08 09:40:04;;;;;;;15.90;8.43;;;28.50;55.20;;;;;;4995570;28;92350;-79
2023/06/08 09:42:41;;;;;;;14.75;8.45;;;28.60;54.40;;;;;;4976917;28;87677;-80
2023/06/08 09:45:09;;;;;;;17.33;9.65;;;28.60;54.40;;;;;;4971112;28;90180;-81
2023/06/08 09:47:34;;;;;;;13.82;8.63;;;28.60;52.20;;;;;;4984414;28;91756;-80
2023/06/08 09:50:00;;;;;;;11.88;8.75;;;28.60;52.60;;;;;;4996241;28;88056;-81
2023/06/08 09:52:29;;;;;;;15.40;9.07;;;28.60;54.40;;;;;;4968935;28;87218;-81
2023/06/08 09:54:54;;;;;;;13.60;8.98;;;28.60;53.00;;;;;;4978129;28;90569;-80
2023/06/08 09:57:20;;;;;;;14.10;8.63;;;28.90;54.00;;;;;;4994918;28;91475;-81
2023/06/08 10:00:08;;;;;;;14.63;8.73;;;29.00;53.50;;;;;;4995012;28;90726;-81
2023/06/08 10:02:38;;;;;;;21.70;9.60;;;29.00;52.70;;;;;;4977309;28;88641;-80
2023/06/08 10:05:10;;;;;;;12.90;7.03;;;29.20;52.00;;;;;;4970041;28;89289;-80
2023/06/08 10:07:38;;;;;;;11.45;6.72;;;29.20;52.90;;;;;;4995388;28;88209;-80
2023/06/08 10:10:13;;;;;;;13.40;7.72;;;29.40;53.50;;;;;;4977021;28;91049;-82
2023/06/08 10:12:40;;;;;;;13.43;7.13;;;29.80;53.40;;;;;;4970006;28;87492;-82
2023/06/08 10:15:07;;;;;;;10.55;5.30;;;30.00;51.90;;;;;;4994275;28;90798;-82
2023/06/08 10:17:34;;;;;;;12.70;6.95;;;30.40;52.00;;;;;;4995529;28;89897;-82
2023/06/08 10:19:59;;;;;;;12.10;7.05;;;30.60;50.50;;;;;;4996150;28;88351;-81
2023/06/08 10:22:26;;;;;;;11.15;6.95;;;30.50;49.60;;;;;;4970187;28;87965;-80
2023/06/08 10:24:52;;;;;;;14.40;8.15;;;30.20;50.40;;;;;;4986229;28;88928;-80
2023/06/08 10:27:24;;;;;;;10.82;6.45;;;30.10;49.70;;;;;;4995569;28;88706;-80
2023/06/08 10:29:58;;;;;;;8.00;6.05;;;30.40;48.80;;;;;;4995894;28;89470;-80
2023/06/08 10:32:32;;;;;;;9.18;5.60;;;30.30;49.40;;;;;;4994989;28;87998;-80
2023/06/08 10:35:01;;;;;;;8.98;5.78;;;30.50;49.90;;;;;;4995735;28;87913;-80
2023/06/08 10:37:33;;;;;;;10.38;5.38;;;30.80;50.00;;;;;;4994583;28;88282;-79
2023/06/08 10:40:06;;;;;;;12.88;6.32;;;31.20;49.50;;;;;;4995028;28;88355;-78
2023/06/08 10:42:32;;;;;;;9.63;6.50;;;31.00;48.30;;;;;;4976997;28;87698;-79
2023/06/08 10:44:59;;;;;;;8.43;5.50;;;30.90;48.80;;;;;;4971559;28;89633;-80
2023/06/08 10:47:26;;;;;;;11.68;5.82;;;30.90;49.60;;;;;;4995553;28;88975;-80
2023/06/08 10:49:59;;;;;;;10.80;6.47;;;31.30;50.40;;;;;;4998124;28;88396;-80
2023/06/08 10:52:26;;;;;;;14.35;6.78;;;31.70;48.50;;;;;;4998306;28;88533;-80
2023/06/08 10:55:11;;;;;;;8.88;6.13;;;31.90;46.90;;;;;;4997506;28;87601;-80
2023/06/08 10:57:38;;;;;;;7.70;4.35;;;31.90;47.80;;;;;;4998748;28;88110;-81
2023/06/08 11:00:26;;;;;;;10.52;5.78;;;32.10;48.60;;;;;;4996804;28;90970;-80
2023/06/08 11:02:56;;;;;;;11.02;7.43;;;32.40;46.30;;;;;;4979869;28;87973;-80
2023/06/08 11:05:25;;;;;;;11.88;7.00;;;32.10;47.00;;;;;;4973317;28;89511;-81
2023/06/08 11:07:54;;;;;;;8.25;5.47;;;31.90;47.10;;;;;;4998135;28;88366;-83
2023/06/08 11:10:20;;;;;;;9.50;5.40;;;32.10;47.30;;;;;;4987946;28;91000;-81
2023/06/08 11:12:46;;;;;;;9.15;4.88;;;31.90;46.70;;;;;;4997723;28;87616;-81
2023/06/08 11:15:12;;;;;;;8.07;4.93;;;32.10;46.80;;;;;;4998133;28;88245;-82
2023/06/08 11:17:44;;;;;;;7.10;4.95;;;32.40;47.20;;;;;;4979196;28;90270;-83
2023/06/08 11:20:13;;;;;;;8.63;5.22;;;32.60;46.50;;;;;;4978964;28;93072;-84
2023/06/08 11:22:39;;;;;;;7.85;5.00;;;32.70;46.30;;;;;;4987926;28;87328;-83
2023/06/08 11:25:07;;;;;;;7.80;5.30;;;32.90;47.20;;;;;;4998562;28;87630;-83
2023/06/08 11:27:33;;;;;;;6.80;4.88;;;32.80;45.80;;;;;;4997180;28;91744;-84
2023/06/08 11:29:58;;;;;;;6.80;4.60;;;32.60;46.30;;;;;;4978765;28;89675;-85
2023/06/08 11:32:26;;;;;;;8.43;4.70;;;32.70;45.30;;;;;;4996142;28;87857;-82
2023/06/08 11:34:52;;;;;;;6.50;4.60;;;32.90;44.50;;;;;;4997540;28;90515;-86
2023/06/08 11:37:19;;;;;;;6.38;4.45;;;32.90;46.10;;;;;;4997715;28;91295;-81
2023/06/08 11:39:46;;;;;;;9.05;4.88;;;33.20;45.50;;;;;;4971410;28;90357;-83
2023/06/08 11:42:12;;;;;;;8.75;4.57;;;33.50;45.60;;;;;;4997866;28;88370;-84
2023/06/08 11:44:37;;;;;;;7.43;4.25;;;33.90;45.10;;;;;;4973851;28;90419;-82
2023/06/08 11:47:05;;;;;;;10.30;5.40;;;34.10;44.30;;;;;;4980679;28;91685;-82
2023/06/08 11:50:07;;;;;;;8.23;4.38;;;34.20;42.60;;;;;;4980327;28;90938;-81
2023/06/08 11:52:34;;;;;;;8.43;3.90;;;34.30;42.50;;;;;;4938690;28;87688;-85
2023/06/08 11:55:12;;;;;;;9.07;4.43;;;34.20;43.10;;;;;;4980584;28;87507;-86
2023/06/08 11:57:49;;;;;;;6.10;3.38;;;33.90;43.30;;;;;;4988500;28;90860;-84
2023/06/08 12:00:21;;;;;;;7.32;3.80;;;33.90;45.00;;;;;;4971575;28;89159;-84
2023/06/08 12:02:51;;;;;;;5.43;3.63;;;33.90;43.60;;;;;;4973236;28;87835;-84
2023/06/08 12:05:33;;;;;;;6.65;3.92;;;33.90;41.90;;;;;;4979262;28;90384;-88
2023/06/08 12:08:03;;;;;;;5.13;3.30;;;34.10;43.80;;;;;;4970142;28;92481;-82
2023/06/08 12:10:35;;;;;;;7.70;4.47;;;34.60;43.30;;;;;;4988948;28;89415;-86
2023/06/08 12:13:22;;;;;;;6.80;3.55;;;34.90;42.10;;;;;;4979550;28;87844;-81
2023/06/08 12:15:53;;;;;;;7.97;4.10;;;35.00;42.50;;;;;;4979796;28;89456;-82
2023/06/08 12:18:21;;;;;;;7.90;3.83;;;34.90;41.70;;;;;;4977541;28;91784;-81
2023/06/08 12:20:54;;;;;;;7.07;3.15;;;34.90;42.00;;;;;;4979263;28;90186;-80
2023/06/08 12:23:20;;;;;;;7.53;3.85;;;35.10;43.20;;;;;;4979533;28;87724;-79
2023/06/08 12:25:51;;;;;;;6.82;3.92;;;35.40;42.00;;;;;;4997976;28;86867;-82
2023/06/08 12:28:23;;;;;;;6.10;3.65;;;35.60;42.60;;;;;;4994340;28;90302;-81
2023/06/08 12:30:57;;;;;;;5.57;3.47;;;36.00;42.10;;;;;;4996631;28;87505;-82
2023/06/08 12:33:24;;;;;;;6.22;3.50;;;36.20;40.90;;;;;;4987891;28;88977;-81
2023/06/08 12:35:51;;;;;;;6.72;4.35;;;36.30;40.30;;;;;;4996793;28;88113;-81
2023/06/08 12:38:18;;;;;;;7.70;3.60;;;36.10;39.80;;;;;;4996463;28;88954;-81
2023/06/08 12:40:47;;;;;;;6.00;3.90;;;36.00;41.60;;;;;;4997219;28;87840;-81